Terminal Aerodrome Forecast
Issued by NWS Buffalo, NY

Home | Current Version | Previous Version | Text Only | Print | Product List | Glossary On
Versions: 1 2 3 4 5 6 7 8 9 10 11 12 13 14 15 16 17 18 19 20 21 22 23 24 25 26
000
FTUS41 KBUF 041736
TAFART
TAF
KART 041736Z 0418/0518 24012KT P6SM BKN045
     FM042300 24009KT P6SM VCTS BKN045CB
     FM050600 23005KT P6SM VCSH OVC045
     FM051700 26013KT P6SM VCSH OVC045=

USA.gov is the U.S. government's official web portal to all federal, state and local government web resources and services.